createdAt,value
2023-02-26T00:00:35.103Z,97726.88
2023-02-26T00:06:02.807Z,97738.13
2023-02-26T00:11:08.869Z,97748.13
2023-02-26T00:16:33.164Z,97759.52
2023-02-26T00:21:37.493Z,97768.93
2023-02-26T00:26:41.643Z,97776.14
2023-02-26T00:31:46.932Z,97786.80
2023-02-26T00:36:55.179Z,97793.23
2023-02-26T00:42:38.025Z,97794.63
2023-02-26T00:48:15.845Z,97805.23
2023-02-26T00:53:40.896Z,97820.77
2023-02-26T00:58:44.859Z,97832.34
2023-02-26T01:03:49.101Z,97832.41
2023-02-26T01:09:03.326Z,97834.92
2023-02-26T01:14:07.980Z,97836.81
2023-02-26T01:19:26.713Z,97839.77
2023-02-26T01:24:32.085Z,97828.79
2023-02-26T01:29:36.128Z,97825.31
2023-02-26T01:34:52.989Z,97815.98
2023-02-26T01:40:05.834Z,97814.77
2023-02-26T01:45:18.059Z,97810.52
2023-02-26T01:50:26.114Z,97816.31
2023-02-26T01:55:30.990Z,97829.86
2023-02-26T02:00:35.131Z,97838.23
2023-02-26T02:05:51.508Z,97848.98
2023-02-26T02:11:10.491Z,97858.50
2023-02-26T02:16:48.310Z,97865.52
2023-02-26T02:22:07.600Z,97872.51
2023-02-26T02:27:30.981Z,97869.65
2023-02-26T02:32:45.088Z,97874.95
2023-02-26T02:38:14.766Z,97889.09
2023-02-26T02:43:25.083Z,97909.02
2023-02-26T02:48:34.299Z,97920.16
2023-02-26T02:53:50.799Z,97927.41
2023-02-26T02:58:59.367Z,97928.46
2023-02-26T03:04:11.828Z,97931.84
2023-02-26T03:09:17.797Z,97927.98
2023-02-26T03:14:22.055Z,97923.35
2023-02-26T03:19:42.013Z,97917.09
2023-02-26T03:24:56.445Z,97917.42
2023-02-26T03:30:03.117Z,97926.70
2023-02-26T03:35:18.933Z,97946.83
2023-02-26T03:40:42.585Z,97967.84
2023-02-26T03:46:26.330Z,97980.48
2023-02-26T03:51:40.934Z,97991.03
2023-02-26T03:57:06.194Z,97994.08
2023-02-26T04:02:44.900Z,97996.80
2023-02-26T04:07:52.609Z,98004.02
2023-02-26T04:13:01.114Z,98009.80
2023-02-26T04:18:15.484Z,98025.88
2023-02-26T04:23:19.959Z,98037.70
2023-02-26T04:28:23.533Z,98043.19
2023-02-26T04:33:27.687Z,98058.83
2023-02-26T04:38:33.676Z,98066.80
2023-02-26T04:43:38.091Z,98072.14
2023-02-26T04:49:08.887Z,98083.39
2023-02-26T04:54:13.320Z,98091.16
2023-02-26T04:59:19.669Z,98091.27
2023-02-26T05:04:23.315Z,98096.05
2023-02-26T05:09:28.421Z,98101.83
2023-02-26T05:14:32.767Z,98109.17
2023-02-26T05:19:36.649Z,98124.34
2023-02-26T05:24:41.966Z,98136.06
2023-02-26T05:29:47.155Z,98139.20
2023-02-26T05:35:00.041Z,98144.30
2023-02-26T05:40:07.399Z,98149.98
2023-02-26T05:45:11.892Z,98154.86
2023-02-26T05:50:16.075Z,98176.47
2023-02-26T05:55:20.211Z,98188.89
2023-02-26T06:00:24.110Z,98210.45
2023-02-26T06:05:28.161Z,98215.88
2023-02-26T06:10:35.050Z,98225.75
2023-02-26T06:15:43.634Z,98229.83
2023-02-26T06:20:47.415Z,98235.07
2023-02-26T06:25:52.989Z,98240.31
2023-02-26T06:30:56.639Z,98258.61
2023-02-26T06:36:00.869Z,98282.51
2023-02-26T06:41:09.106Z,98289.84
2023-02-26T06:46:14.650Z,98291.22
2023-02-26T06:51:18.304Z,98290.11
2023-02-26T06:56:24.243Z,98288.31
2023-02-26T07:01:36.879Z,98293.33
2023-02-26T07:06:41.772Z,98305.64
2023-02-26T07:11:45.575Z,98306.66
2023-02-26T07:16:50.605Z,98313.96
2023-02-26T07:21:55.262Z,98302.96
2023-02-26T07:26:58.814Z,98306.98
2023-02-26T07:32:02.971Z,98312.42
2023-02-26T07:37:06.774Z,98306.08
2023-02-26T07:42:10.273Z,98315.16
2023-02-26T07:47:15.437Z,98328.19
2023-02-26T07:52:20.159Z,98342.33
2023-02-26T07:57:23.633Z,98360.63
2023-02-26T08:02:27.543Z,98369.36
2023-02-26T08:07:30.904Z,98380.36
2023-02-26T08:12:34.652Z,98390.27
2023-02-26T08:17:38.001Z,98400.04
2023-02-26T08:22:42.272Z,98409.82
2023-02-26T08:27:45.884Z,98416.45
2023-02-26T08:32:50.163Z,98420.55
2023-02-26T08:37:53.429Z,98429.15
2023-02-26T08:42:59.021Z,98436.02
2023-02-26T08:48:04.632Z,98441.48
2023-02-26T08:53:08.379Z,98456.81
2023-02-26T08:58:21.645Z,98460.41
2023-02-26T09:03:25.149Z,98463.69
2023-02-26T09:08:34.134Z,98469.02
2023-02-26T09:13:42.700Z,98476.52
2023-02-26T09:18:48.634Z,98483.09
2023-02-26T09:23:54.112Z,98490.83
2023-02-26T09:28:58.362Z,98501.54
2023-02-26T09:34:01.732Z,98509.77
2023-02-26T09:39:06.575Z,98520.31
2023-02-26T09:44:23.875Z,98519.13
2023-02-26T09:49:36.553Z,98520.51
2023-02-26T09:54:47.201Z,98522.63
2023-02-26T09:59:52.381Z,98529.10
2023-02-26T10:05:26.618Z,98531.96
2023-02-26T10:11:02.377Z,98539.59
2023-02-26T10:16:12.700Z,98539.43
2023-02-26T10:21:23.941Z,98544.37
2023-02-26T10:26:33.550Z,98555.39
2023-02-26T10:31:51.893Z,98567.88
2023-02-26T10:37:09.308Z,98569.45
2023-02-26T10:42:21.566Z,98582.83
2023-02-26T10:47:51.955Z,98577.52
2023-02-26T10:52:56.128Z,98575.80
2023-02-26T10:58:26.425Z,98570.81
2023-02-26T11:03:40.922Z,98580.55
2023-02-26T11:08:46.523Z,98590.75
2023-02-26T11:13:49.902Z,98601.27
2023-02-26T11:19:00.624Z,98618.21
2023-02-26T11:24:17.671Z,98625.48
2023-02-26T11:29:23.508Z,98638.48
2023-02-26T11:34:27.360Z,98649.90
2023-02-26T11:39:36.607Z,98655.87
2023-02-26T11:44:44.820Z,98670.27
2023-02-26T11:49:56.736Z,98677.30
2023-02-26T11:55:06.213Z,98677.45
2023-02-26T12:00:24.089Z,98680.88
2023-02-26T12:05:27.843Z,98686.46
2023-02-26T12:11:08.997Z,98690.32
2023-02-26T12:16:36.081Z,98682.91
2023-02-26T12:22:03.036Z,98685.43
2023-02-26T12:27:13.120Z,98688.34
2023-02-26T12:32:38.955Z,98694.81
2023-02-26T12:37:54.216Z,98704.61
2023-02-26T12:43:11.789Z,98709.08
2023-02-26T12:48:51.456Z,98722.30
2023-02-26T12:53:58.099Z,98731.98
2023-02-26T12:59:04.663Z,98731.14
2023-02-26T13:04:24.351Z,98739.12
2023-02-26T13:10:36.271Z,98746.13
2023-02-26T13:16:46.156Z,98755.08
2023-02-26T13:23:13.217Z,98773.06
2023-02-26T13:29:23.394Z,98787.84
2023-02-26T13:35:27.071Z,98799.04
2023-02-26T13:41:52.482Z,98808.90
2023-02-26T13:48:12.223Z,98816.81
2023-02-26T13:54:10.257Z,98820.71
2023-02-26T14:00:33.341Z,98825.27
2023-02-26T14:07:17.595Z,98824.00
2023-02-26T14:13:41.597Z,98837.62
2023-02-26T14:19:36.819Z,98845.87
2023-02-26T14:25:49.787Z,98847.99
2023-02-26T14:31:36.457Z,98852.07
2023-02-26T14:44:55.660Z,98855.98
2023-02-26T14:51:06.541Z,98854.05
2023-02-26T15:05:10.330Z,98853.11
2023-02-26T15:10:50.368Z,98872.09
2023-02-26T15:17:48.525Z,98884.33
2023-02-26T15:24:34.850Z,98883.37
2023-02-26T15:38:02.993Z,98950.17
2023-02-26T15:44:57.430Z,98950.86
2023-02-26T15:50:55.013Z,98941.66
2023-02-26T15:57:12.282Z,98956.19
2023-02-26T16:02:39.533Z,98980.63
2023-02-26T16:08:48.806Z,98999.13
2023-02-26T16:15:19.511Z,99012.63
2023-02-26T16:21:44.332Z,99029.52
2023-02-26T16:27:44.730Z,99035.96
2023-02-26T16:34:21.390Z,99052.14
2023-02-26T16:41:14.019Z,99064.09
2023-02-26T16:46:42.625Z,99066.89
2023-02-26T16:52:57.194Z,99079.71
2023-02-26T16:59:09.024Z,99090.50
2023-02-26T17:05:25.741Z,99101.27
2023-02-26T17:11:51.676Z,99122.20
2023-02-26T17:25:06.915Z,99121.98
2023-02-26T17:30:44.039Z,99126.59
2023-02-26T17:51:23.237Z,99151.19
2023-02-26T17:56:52.941Z,99145.42
2023-02-26T18:17:15.997Z,99140.98
2023-02-26T18:23:20.403Z,99146.15
2023-02-26T18:44:58.289Z,99170.22
2023-02-26T18:57:27.358Z,99194.52
2023-02-26T19:03:56.612Z,99208.71
2023-02-26T19:10:12.951Z,99217.81
2023-02-26T19:16:35.120Z,99233.27
2023-02-26T19:35:36.775Z,99221.39
2023-02-26T19:42:15.516Z,99236.98
2023-02-26T19:47:57.042Z,99252.28
2023-02-26T19:53:37.473Z,99253.78
2023-02-26T20:02:51.236Z,99272.73
2023-02-26T20:09:16.252Z,99274.73
2023-02-26T20:15:23.708Z,99272.52
2023-02-26T20:21:11.562Z,99282.77
2023-02-26T20:26:20.893Z,99283.13
2023-02-26T20:32:00.783Z,99290.02
2023-02-26T20:38:25.298Z,99299.72
2023-02-26T20:44:39.502Z,99295.73
2023-02-26T20:50:38.891Z,99302.49
2023-02-26T20:57:09.079Z,99304.98
2023-02-26T21:02:52.865Z,99313.23
2023-02-26T21:08:28.713Z,99322.83
2023-02-26T21:14:07.862Z,99317.88
2023-02-26T21:20:19.268Z,99318.66
2023-02-26T21:26:26.101Z,99316.41
2023-02-26T21:32:50.300Z,99314.09
2023-02-26T21:38:52.141Z,99323.35
2023-02-26T21:45:31.863Z,99338.42
2023-02-26T21:52:02.584Z,99342.03
2023-02-26T21:58:09.907Z,99348.91
2023-02-26T22:04:19.960Z,99349.23
2023-02-26T22:17:39.118Z,99358.23
2023-02-26T22:31:55.428Z,99371.23
2023-02-26T22:38:29.036Z,99369.64
2023-02-26T22:44:34.436Z,99369.44
2023-02-26T22:50:14.889Z,99376.33
2023-02-26T23:03:15.414Z,99377.84
2023-02-26T23:09:47.190Z,99389.88
2023-02-26T23:16:09.065Z,99395.95
2023-02-26T23:28:17.185Z,99406.51
2023-02-26T23:33:53.619Z,99408.28
2023-02-26T23:39:57.300Z,99412.92
2023-02-26T23:46:05.353Z,99414.95
2023-02-26T23:52:29.995Z,99420.83
2023-02-26T23:58:26.854Z,99426.91
